sensor_id;sensor_type;location;lat;lon;timestamp;temperature;humidity
37786;DHT22;23625;48.784;9.336;2023-06-10T00:00:16;15.70;99.90
37786;DHT22;23625;48.784;9.336;2023-06-10T00:02:42;15.60;99.90
37786;DHT22;23625;48.784;9.336;2023-06-10T00:05:09;15.50;99.90
37786;DHT22;23625;48.784;9.336;2023-06-10T00:07:35;15.50;99.90
37786;DHT22;23625;48.784;9.336;2023-06-10T00:10:07;15.40;99.90
37786;DHT22;23625;48.784;9.336;2023-06-10T00:12:33;15.30;99.90
37786;DHT22;23625;48.784;9.336;2023-06-10T00:15:06;15.30;99.90
37786;DHT22;23625;48.784;9.336;2023-06-10T00:17:32;15.30;99.90
37786;DHT22;23625;48.784;9.336;2023-06-10T00:19:58;15.30;99.90
37786;DHT22;23625;48.784;9.336;2023-06-10T00:22:24;15.20;99.90
37786;DHT22;23625;48.784;9.336;2023-06-10T00:24:55;15.20;99.90
37786;DHT22;23625;48.784;9.336;2023-06-10T00:27:21;15.10;99.90
37786;DHT22;23625;48.784;9.336;2023-06-10T00:29:46;15.10;99.90
37786;DHT22;23625;48.784;9.336;2023-06-10T00:32:12;15.10;99.90
37786;DHT22;23625;48.784;9.336;2023-06-10T00:34:38;15.10;99.90
37786;DHT22;23625;48.784;9.336;2023-06-10T00:37:03;15.00;99.90
37786;DHT22;23625;48.784;9.336;2023-06-10T00:39:29;15.00;99.90
37786;DHT22;23625;48.784;9.336;2023-06-10T00:41:54;15.00;99.90
37786;DHT22;23625;48.784;9.336;2023-06-10T00:44:20;14.90;99.90
37786;DHT22;23625;48.784;9.336;2023-06-10T00:46:46;14.90;99.90
37786;DHT22;23625;48.784;9.336;2023-06-10T00:49:12;14.90;99.90
37786;DHT22;23625;48.784;9.336;2023-06-10T00:51:37;14.90;99.90
37786;DHT22;23625;48.784;9.336;2023-06-10T00:54:05;14.90;99.90
37786;DHT22;23625;48.784;9.336;2023-06-10T00:56:31;14.80;99.90
37786;DHT22;23625;48.784;9.336;2023-06-10T00:58:58;14.80;99.90
37786;DHT22;23625;48.784;9.336;2023-06-10T01:01:24;14.80;99.90
37786;DHT22;23625;48.784;9.336;2023-06-10T01:03:50;14.70;99.90
37786;DHT22;23625;48.784;9.336;2023-06-10T01:11:35;14.60;99.90
37786;DHT22;23625;48.784;9.336;2023-06-10T01:14:03;14.70;99.90
37786;DHT22;23625;48.784;9.336;2023-06-10T01:16:30;14.70;99.90
37786;DHT22;23625;48.784;9.336;2023-06-10T01:18:56;14.60;99.90
37786;DHT22;23625;48.784;9.336;2023-06-10T01:21:22;14.60;99.90
37786;DHT22;23625;48.784;9.336;2023-06-10T01:23:53;14.50;99.90
37786;DHT22;23625;48.784;9.336;2023-06-10T01:26:24;14.50;99.90
37786;DHT22;23625;48.784;9.336;2023-06-10T01:28:58;14.50;99.90
37786;DHT22;23625;48.784;9.336;2023-06-10T01:31:53;14.50;99.90
37786;DHT22;23625;48.784;9.336;2023-06-10T01:34:21;14.50;99.90
37786;DHT22;23625;48.784;9.336;2023-06-10T01:36:49;14.50;99.90
37786;DHT22;23625;48.784;9.336;2023-06-10T01:39:17;14.40;99.90
37786;DHT22;23625;48.784;9.336;2023-06-10T01:41:44;14.40;99.90
37786;DHT22;23625;48.784;9.336;2023-06-10T01:44:10;14.30;99.90
37786;DHT22;23625;48.784;9.336;2023-06-10T01:46:36;14.20;99.90
37786;DHT22;23625;48.784;9.336;2023-06-10T01:49:02;14.20;99.90
37786;DHT22;23625;48.784;9.336;2023-06-10T01:51:27;14.10;99.90
37786;DHT22;23625;48.784;9.336;2023-06-10T01:53:53;14.10;99.90
37786;DHT22;23625;48.784;9.336;2023-06-10T01:56:18;14.10;99.90
37786;DHT22;23625;48.784;9.336;2023-06-10T01:58:47;14.10;99.90
37786;DHT22;23625;48.784;9.336;2023-06-10T02:01:13;14.00;99.90
37786;DHT22;23625;48.784;9.336;2023-06-10T02:03:39;14.00;99.90
37786;DHT22;23625;48.784;9.336;2023-06-10T02:06:05;14.00;99.90
37786;DHT22;23625;48.784;9.336;2023-06-10T02:08:31;13.90;99.90
37786;DHT22;23625;48.784;9.336;2023-06-10T02:10:56;13.90;99.90
37786;DHT22;23625;48.784;9.336;2023-06-10T02:13:22;13.80;99.90
37786;DHT22;23625;48.784;9.336;2023-06-10T02:15:48;13.90;99.90
37786;DHT22;23625;48.784;9.336;2023-06-10T02:18:13;13.90;99.90
37786;DHT22;23625;48.784;9.336;2023-06-10T02:20:39;13.90;99.90
37786;DHT22;23625;48.784;9.336;2023-06-10T02:23:04;13.80;99.90
37786;DHT22;23625;48.784;9.336;2023-06-10T02:25:30;13.90;99.90
37786;DHT22;23625;48.784;9.336;2023-06-10T02:27:56;13.90;99.90
37786;DHT22;23625;48.784;9.336;2023-06-10T02:30:22;13.80;99.90
37786;DHT22;23625;48.784;9.336;2023-06-10T02:32:47;13.70;99.90
37786;DHT22;23625;48.784;9.336;2023-06-10T02:35:17;13.70;99.90
37786;DHT22;23625;48.784;9.336;2023-06-10T02:37:43;13.60;99.90
37786;DHT22;23625;48.784;9.336;2023-06-10T02:40:09;13.60;99.90
37786;DHT22;23625;48.784;9.336;2023-06-10T02:42:36;13.50;99.90
37786;DHT22;23625;48.784;9.336;2023-06-10T02:45:02;13.50;99.90
37786;DHT22;23625;48.784;9.336;2023-06-10T02:47:27;13.50;99.90
37786;DHT22;23625;48.784;9.336;2023-06-10T02:49:53;13.50;99.90
37786;DHT22;23625;48.784;9.336;2023-06-10T02:52:18;13.40;99.90
37786;DHT22;23625;48.784;9.336;2023-06-10T02:54:44;13.30;99.90
37786;DHT22;23625;48.784;9.336;2023-06-10T02:57:11;13.40;99.90
37786;DHT22;23625;48.784;9.336;2023-06-10T02:59:36;13.30;99.90
37786;DHT22;23625;48.784;9.336;2023-06-10T03:02:02;13.30;99.90
37786;DHT22;23625;48.784;9.336;2023-06-10T03:04:27;13.30;99.90
37786;DHT22;23625;48.784;9.336;2023-06-10T03:06:54;13.40;99.90
37786;DHT22;23625;48.784;9.336;2023-06-10T03:09:20;13.30;99.90
37786;DHT22;23625;48.784;9.336;2023-06-10T03:11:46;13.30;99.90
37786;DHT22;23625;48.784;9.336;2023-06-10T03:14:11;13.30;99.90
37786;DHT22;23625;48.784;9.336;2023-06-10T03:16:37;13.20;99.90
37786;DHT22;23625;48.784;9.336;2023-06-10T03:19:06;13.20;99.90
37786;DHT22;23625;48.784;9.336;2023-06-10T03:21:33;13.20;99.90
37786;DHT22;23625;48.784;9.336;2023-06-10T03:23:58;13.20;99.90
37786;DHT22;23625;48.784;9.336;2023-06-10T03:26:24;13.20;99.90
37786;DHT22;23625;48.784;9.336;2023-06-10T03:28:49;13.20;99.90
37786;DHT22;23625;48.784;9.336;2023-06-10T03:31:15;13.30;99.90
37786;DHT22;23625;48.784;9.336;2023-06-10T03:33:42;13.30;99.90
37786;DHT22;23625;48.784;9.336;2023-06-10T03:36:08;13.20;99.90
37786;DHT22;23625;48.784;9.336;2023-06-10T03:38:33;13.20;99.90
37786;DHT22;23625;48.784;9.336;2023-06-10T03:40:59;13.30;99.90
37786;DHT22;23625;48.784;9.336;2023-06-10T03:43:24;13.20;99.90
37786;DHT22;23625;48.784;9.336;2023-06-10T03:45:50;13.20;99.90
37786;DHT22;23625;48.784;9.336;2023-06-10T03:48:16;13.20;99.90
37786;DHT22;23625;48.784;9.336;2023-06-10T03:50:42;13.30;99.90
37786;DHT22;23625;48.784;9.336;2023-06-10T03:53:08;13.30;99.90
37786;DHT22;23625;48.784;9.336;2023-06-10T03:55:33;13.30;99.90
37786;DHT22;23625;48.784;9.336;2023-06-10T03:57:59;13.30;99.90
37786;DHT22;23625;48.784;9.336;2023-06-10T04:00:24;13.30;99.90
37786;DHT22;23625;48.784;9.336;2023-06-10T04:02:50;13.40;99.90
37786;DHT22;23625;48.784;9.336;2023-06-10T04:05:18;13.40;99.90
37786;DHT22;23625;48.784;9.336;2023-06-10T04:07:44;13.40;99.90
37786;DHT22;23625;48.784;9.336;2023-06-10T04:10:11;13.50;99.90
37786;DHT22;23625;48.784;9.336;2023-06-10T04:12:37;13.60;99.90
37786;DHT22;23625;48.784;9.336;2023-06-10T04:15:04;13.60;99.90
37786;DHT22;23625;48.784;9.336;2023-06-10T04:17:30;13.70;99.90
37786;DHT22;23625;48.784;9.336;2023-06-10T04:19:56;13.60;99.90
37786;DHT22;23625;48.784;9.336;2023-06-10T04:22:21;13.70;99.90
37786;DHT22;23625;48.784;9.336;2023-06-10T04:24:48;13.70;99.90
37786;DHT22;23625;48.784;9.336;2023-06-10T04:27:14;13.60;99.90
37786;DHT22;23625;48.784;9.336;2023-06-10T04:29:39;13.70;99.90
37786;DHT22;23625;48.784;9.336;2023-06-10T04:32:06;13.80;99.90
37786;DHT22;23625;48.784;9.336;2023-06-10T04:34:33;13.90;99.90
37786;DHT22;23625;48.784;9.336;2023-06-10T04:36:59;14.00;99.90
37786;DHT22;23625;48.784;9.336;2023-06-10T04:39:24;14.10;99.90
37786;DHT22;23625;48.784;9.336;2023-06-10T04:41:50;14.10;99.90
37786;DHT22;23625;48.784;9.336;2023-06-10T04:44:15;14.20;99.90
37786;DHT22;23625;48.784;9.336;2023-06-10T04:46:41;14.30;99.90
37786;DHT22;23625;48.784;9.336;2023-06-10T04:49:07;14.30;99.90
37786;DHT22;23625;48.784;9.336;2023-06-10T04:51:32;14.40;99.90
37786;DHT22;23625;48.784;9.336;2023-06-10T04:53:58;14.50;99.90
37786;DHT22;23625;48.784;9.336;2023-06-10T04:56:27;14.60;99.90
37786;DHT22;23625;48.784;9.336;2023-06-10T04:58:54;14.60;99.90
37786;DHT22;23625;48.784;9.336;2023-06-10T05:01:19;14.80;99.90
37786;DHT22;23625;48.784;9.336;2023-06-10T05:03:45;14.90;99.90
37786;DHT22;23625;48.784;9.336;2023-06-10T05:06:10;15.00;99.90
37786;DHT22;23625;48.784;9.336;2023-06-10T05:08:36;15.10;99.90
37786;DHT22;23625;48.784;9.336;2023-06-10T05:11:02;15.20;99.90
37786;DHT22;23625;48.784;9.336;2023-06-10T05:13:27;15.50;99.90
37786;DHT22;23625;48.784;9.336;2023-06-10T05:15:53;15.60;99.90
37786;DHT22;23625;48.784;9.336;2023-06-10T05:18:18;15.60;99.90
37786;DHT22;23625;48.784;9.336;2023-06-10T05:20:44;15.70;99.90
37786;DHT22;23625;48.784;9.336;2023-06-10T05:23:09;15.90;99.90
37786;DHT22;23625;48.784;9.336;2023-06-10T05:25:35;16.10;99.90
37786;DHT22;23625;48.784;9.336;2023-06-10T05:28:01;16.30;99.90
37786;DHT22;23625;48.784;9.336;2023-06-10T05:30:27;16.30;99.90
37786;DHT22;23625;48.784;9.336;2023-06-10T05:32:52;16.40;99.90
37786;DHT22;23625;48.784;9.336;2023-06-10T05:35:18;16.60;99.90
37786;DHT22;23625;48.784;9.336;2023-06-10T05:37:44;16.70;99.90
37786;DHT22;23625;48.784;9.336;2023-06-10T05:40:11;16.90;99.90
37786;DHT22;23625;48.784;9.336;2023-06-10T05:42:36;17.00;99.90
37786;DHT22;23625;48.784;9.336;2023-06-10T05:45:02;17.20;99.90
37786;DHT22;23625;48.784;9.336;2023-06-10T05:47:28;17.30;99.90
37786;DHT22;23625;48.784;9.336;2023-06-10T05:49:54;17.40;99.90
37786;DHT22;23625;48.784;9.336;2023-06-10T05:52:19;17.50;99.90
37786;DHT22;23625;48.784;9.336;2023-06-10T05:54:45;17.70;99.90
37786;DHT22;23625;48.784;9.336;2023-06-10T05:57:10;17.80;99.90
37786;DHT22;23625;48.784;9.336;2023-06-10T05:59:36;18.00;99.90
37786;DHT22;23625;48.784;9.336;2023-06-10T06:02:02;18.10;99.90
37786;DHT22;23625;48.784;9.336;2023-06-10T06:04:27;18.10;99.90
37786;DHT22;23625;48.784;9.336;2023-06-10T06:06:53;18.40;99.90
37786;DHT22;23625;48.784;9.336;2023-06-10T06:09:18;18.50;99.90
37786;DHT22;23625;48.784;9.336;2023-06-10T06:11:44;18.70;99.90
37786;DHT22;23625;48.784;9.336;2023-06-10T06:14:10;18.80;99.90
37786;DHT22;23625;48.784;9.336;2023-06-10T06:16:35;18.90;99.90
37786;DHT22;23625;48.784;9.336;2023-06-10T06:19:01;19.10;99.90
37786;DHT22;23625;48.784;9.336;2023-06-10T06:21:26;19.30;99.90
37786;DHT22;23625;48.784;9.336;2023-06-10T06:23:52;19.30;99.90
37786;DHT22;23625;48.784;9.336;2023-06-10T06:26:18;19.50;99.90
37786;DHT22;23625;48.784;9.336;2023-06-10T06:28:43;19.60;99.90
37786;DHT22;23625;48.784;9.336;2023-06-10T06:31:09;19.60;99.90
37786;DHT22;23625;48.784;9.336;2023-06-10T06:33:34;19.60;99.90
37786;DHT22;23625;48.784;9.336;2023-06-10T06:36:00;19.70;99.90
37786;DHT22;23625;48.784;9.336;2023-06-10T06:38:26;19.70;99.90
37786;DHT22;23625;48.784;9.336;2023-06-10T06:40:52;19.70;99.90
37786;DHT22;23625;48.784;9.336;2023-06-10T06:43:17;19.80;99.90
37786;DHT22;23625;48.784;9.336;2023-06-10T06:45:44;20.10;99.90
37786;DHT22;23625;48.784;9.336;2023-06-10T06:48:11;20.20;99.90
37786;DHT22;23625;48.784;9.336;2023-06-10T06:50:36;20.40;99.90
37786;DHT22;23625;48.784;9.336;2023-06-10T06:53:03;20.40;99.90
37786;DHT22;23625;48.784;9.336;2023-06-10T06:55:28;20.40;99.90
37786;DHT22;23625;48.784;9.336;2023-06-10T06:57:54;20.70;99.90
37786;DHT22;23625;48.784;9.336;2023-06-10T07:00:19;20.90;99.90
37786;DHT22;23625;48.784;9.336;2023-06-10T07:02:45;20.90;99.90
37786;DHT22;23625;48.784;9.336;2023-06-10T07:05:11;21.00;99.90
37786;DHT22;23625;48.784;9.336;2023-06-10T07:07:36;21.00;99.90
37786;DHT22;23625;48.784;9.336;2023-06-10T07:10:02;21.10;99.90
37786;DHT22;23625;48.784;9.336;2023-06-10T07:12:27;21.20;99.90
37786;DHT22;23625;48.784;9.336;2023-06-10T07:14:53;21.40;99.60
37786;DHT22;23625;48.784;9.336;2023-06-10T07:17:19;21.50;98.80
37786;DHT22;23625;48.784;9.336;2023-06-10T07:19:45;21.70;97.30
37786;DHT22;23625;48.784;9.336;2023-06-10T07:22:11;21.90;97.00
37786;DHT22;23625;48.784;9.336;2023-06-10T07:24:36;22.00;97.10
37786;DHT22;23625;48.784;9.336;2023-06-10T07:27:02;22.20;96.00
37786;DHT22;23625;48.784;9.336;2023-06-10T07:29:27;22.20;95.30
37786;DHT22;23625;48.784;9.336;2023-06-10T07:31:53;22.10;95.50
37786;DHT22;23625;48.784;9.336;2023-06-10T07:34:19;22.10;94.70
37786;DHT22;23625;48.784;9.336;2023-06-10T07:36:44;22.10;95.80
37786;DHT22;23625;48.784;9.336;2023-06-10T07:39:10;22.20;96.20
37786;DHT22;23625;48.784;9.336;2023-06-10T07:41:36;22.30;94.80
37786;DHT22;23625;48.784;9.336;2023-06-10T07:44:02;22.50;92.20
37786;DHT22;23625;48.784;9.336;2023-06-10T07:46:30;22.70;91.90
37786;DHT22;23625;48.784;9.336;2023-06-10T07:48:56;23.00;88.80
37786;DHT22;23625;48.784;9.336;2023-06-10T07:51:22;23.30;87.70
37786;DHT22;23625;48.784;9.336;2023-06-10T07:53:47;23.40;83.20
37786;DHT22;23625;48.784;9.336;2023-06-10T07:56:13;23.70;80.10
37786;DHT22;23625;48.784;9.336;2023-06-10T07:58:38;23.80;79.40
37786;DHT22;23625;48.784;9.336;2023-06-10T08:01:04;24.00;77.80
37786;DHT22;23625;48.784;9.336;2023-06-10T08:03:30;24.10;75.50
37786;DHT22;23625;48.784;9.336;2023-06-10T08:05:55;24.20;76.80
37786;DHT22;23625;48.784;9.336;2023-06-10T08:08:21;24.40;74.30
37786;DHT22;23625;48.784;9.336;2023-06-10T08:10:47;24.40;73.70
37786;DHT22;23625;48.784;9.336;2023-06-10T08:13:13;24.50;74.20
37786;DHT22;23625;48.784;9.336;2023-06-10T08:15:38;24.70;72.80
37786;DHT22;23625;48.784;9.336;2023-06-10T08:18:04;24.80;70.50
37786;DHT22;23625;48.784;9.336;2023-06-10T08:20:30;24.90;72.30
37786;DHT22;23625;48.784;9.336;2023-06-10T08:22:55;25.00;71.30
37786;DHT22;23625;48.784;9.336;2023-06-10T08:25:21;25.10;70.80
37786;DHT22;23625;48.784;9.336;2023-06-10T08:27:47;25.30;69.70
37786;DHT22;23625;48.784;9.336;2023-06-10T08:30:13;25.40;67.70
37786;DHT22;23625;48.784;9.336;2023-06-10T08:32:39;25.50;66.70
37786;DHT22;23625;48.784;9.336;2023-06-10T08:35:05;25.60;66.30
37786;DHT22;23625;48.784;9.336;2023-06-10T08:37:31;25.80;65.60
37786;DHT22;23625;48.784;9.336;2023-06-10T08:39:56;25.80;64.60
37786;DHT22;23625;48.784;9.336;2023-06-10T08:42:39;26.00;64.10
37786;DHT22;23625;48.784;9.336;2023-06-10T08:45:07;26.10;63.80
37786;DHT22;23625;48.784;9.336;2023-06-10T08:47:39;26.10;61.80
37786;DHT22;23625;48.784;9.336;2023-06-10T08:50:08;26.30;62.30
37786;DHT22;23625;48.784;9.336;2023-06-10T08:52:36;26.40;60.50
37786;DHT22;23625;48.784;9.336;2023-06-10T08:55:10;26.40;60.10
37786;DHT22;23625;48.784;9.336;2023-06-10T08:57:36;26.40;59.40
37786;DHT22;23625;48.784;9.336;2023-06-10T09:00:03;26.30;58.70
37786;DHT22;23625;48.784;9.336;2023-06-10T09:02:28;26.50;60.00
37786;DHT22;23625;48.784;9.336;2023-06-10T09:04:56;26.90;61.10
37786;DHT22;23625;48.784;9.336;2023-06-10T09:07:23;27.10;59.10
37786;DHT22;23625;48.784;9.336;2023-06-10T09:09:49;27.10;58.40
37786;DHT22;23625;48.784;9.336;2023-06-10T09:12:17;27.30;58.20
37786;DHT22;23625;48.784;9.336;2023-06-10T09:14:45;27.20;57.10
37786;DHT22;23625;48.784;9.336;2023-06-10T09:17:11;27.30;57.70
37786;DHT22;23625;48.784;9.336;2023-06-10T09:19:38;27.40;57.70
37786;DHT22;23625;48.784;9.336;2023-06-10T09:22:05;27.50;57.50
37786;DHT22;23625;48.784;9.336;2023-06-10T09:24:31;27.60;57.00
37786;DHT22;23625;48.784;9.336;2023-06-10T09:27:05;27.70;56.20
37786;DHT22;23625;48.784;9.336;2023-06-10T09:29:34;27.70;55.80
37786;DHT22;23625;48.784;9.336;2023-06-10T09:32:10;27.60;55.60
37786;DHT22;23625;48.784;9.336;2023-06-10T09:34:36;27.60;56.40
37786;DHT22;23625;48.784;9.336;2023-06-10T09:37:02;27.90;57.00
37786;DHT22;23625;48.784;9.336;2023-06-10T09:39:27;28.20;56.00
37786;DHT22;23625;48.784;9.336;2023-06-10T09:41:53;28.20;54.20
37786;DHT22;23625;48.784;9.336;2023-06-10T09:44:20;28.30;55.00
37786;DHT22;23625;48.784;9.336;2023-06-10T09:46:49;28.30;54.20
37786;DHT22;23625;48.784;9.336;2023-06-10T09:49:16;28.30;54.40
37786;DHT22;23625;48.784;9.336;2023-06-10T09:51:53;28.60;54.10
37786;DHT22;23625;48.784;9.336;2023-06-10T09:54:19;28.60;54.10
37786;DHT22;23625;48.784;9.336;2023-06-10T09:56:49;28.60;54.00
37786;DHT22;23625;48.784;9.336;2023-06-10T09:59:15;28.70;53.20
37786;DHT22;23625;48.784;9.336;2023-06-10T10:01:41;28.50;53.70
37786;DHT22;23625;48.784;9.336;2023-06-10T10:04:07;28.80;54.00
37786;DHT22;23625;48.784;9.336;2023-06-10T10:06:34;28.90;53.00
37786;DHT22;23625;48.784;9.336;2023-06-10T10:09:00;29.10;52.70
37786;DHT22;23625;48.784;9.336;2023-06-10T10:11:26;29.00;52.10
37786;DHT22;23625;48.784;9.336;2023-06-10T10:13:53;29.10;52.60
37786;DHT22;23625;48.784;9.336;2023-06-10T10:16:36;28.50;51.30
37786;DHT22;23625;48.784;9.336;2023-06-10T10:19:07;28.80;53.20
37786;DHT22;23625;48.784;9.336;2023-06-10T10:21:40;29.00;51.90
37786;DHT22;23625;48.784;9.336;2023-06-10T10:24:12;29.10;51.60
37786;DHT22;23625;48.784;9.336;2023-06-10T10:26:41;29.40;51.50
37786;DHT22;23625;48.784;9.336;2023-06-10T10:29:14;29.30;49.60
37786;DHT22;23625;48.784;9.336;2023-06-10T10:31:43;29.40;51.00
37786;DHT22;23625;48.784;9.336;2023-06-10T10:34:16;29.50;50.50
37786;DHT22;23625;48.784;9.336;2023-06-10T10:36:45;29.80;50.10
37786;DHT22;23625;48.784;9.336;2023-06-10T10:39:11;29.60;49.50
37786;DHT22;23625;48.784;9.336;2023-06-10T10:41:38;29.30;49.40
37786;DHT22;23625;48.784;9.336;2023-06-10T10:44:06;29.00;50.20
37786;DHT22;23625;48.784;9.336;2023-06-10T10:46:42;28.90;50.40
37786;DHT22;23625;48.784;9.336;2023-06-10T10:49:09;29.10;49.70
37786;DHT22;23625;48.784;9.336;2023-06-10T10:51:35;29.20;49.40
37786;DHT22;23625;48.784;9.336;2023-06-10T10:54:13;29.40;49.80
37786;DHT22;23625;48.784;9.336;2023-06-10T10:56:39;29.60;49.80
37786;DHT22;23625;48.784;9.336;2023-06-10T10:59:05;29.40;49.50
37786;DHT22;23625;48.784;9.336;2023-06-10T11:01:42;29.30;50.20
37786;DHT22;23625;48.784;9.336;2023-06-10T11:04:11;29.40;49.70
37786;DHT22;23625;48.784;9.336;2023-06-10T11:06:37;29.60;49.40
37786;DHT22;23625;48.784;9.336;2023-06-10T11:09:25;29.70;49.50
37786;DHT22;23625;48.784;9.336;2023-06-10T11:11:51;29.60;49.10
37786;DHT22;23625;48.784;9.336;2023-06-10T11:14:27;29.60;49.70
37786;DHT22;23625;48.784;9.336;2023-06-10T11:16:58;29.90;50.00
37786;DHT22;23625;48.784;9.336;2023-06-10T11:19:37;30.10;49.10
37786;DHT22;23625;48.784;9.336;2023-06-10T11:22:06;30.00;48.90
37786;DHT22;23625;48.784;9.336;2023-06-10T11:24:32;29.90;48.20
37786;DHT22;23625;48.784;9.336;2023-06-10T11:27:22;30.10;49.30
37786;DHT22;23625;48.784;9.336;2023-06-10T11:32:21;30.50;48.10
37786;DHT22;23625;48.784;9.336;2023-06-10T11:34:52;30.50;48.70
37786;DHT22;23625;48.784;9.336;2023-06-10T11:37:18;30.10;48.30
37786;DHT22;23625;48.784;9.336;2023-06-10T11:39:44;30.00;48.20
37786;DHT22;23625;48.784;9.336;2023-06-10T11:42:11;29.70;47.70
37786;DHT22;23625;48.784;9.336;2023-06-10T11:44:36;29.20;49.50
37786;DHT22;23625;48.784;9.336;2023-06-10T11:47:04;29.30;49.60
37786;DHT22;23625;48.784;9.336;2023-06-10T11:49:30;29.50;49.80
37786;DHT22;23625;48.784;9.336;2023-06-10T11:51:55;29.80;49.50
37786;DHT22;23625;48.784;9.336;2023-06-10T11:54:21;30.10;49.40
37786;DHT22;23625;48.784;9.336;2023-06-10T11:56:47;30.20;47.80
37786;DHT22;23625;48.784;9.336;2023-06-10T11:59:14;30.40;47.80
37786;DHT22;23625;48.784;9.336;2023-06-10T12:01:44;30.40;48.10
37786;DHT22;23625;48.784;9.336;2023-06-10T12:04:12;30.10;47.40
37786;DHT22;23625;48.784;9.336;2023-06-10T12:09:14;30.10;48.70
37786;DHT22;23625;48.784;9.336;2023-06-10T12:11:40;30.20;48.00
37786;DHT22;23625;48.784;9.336;2023-06-10T12:14:05;30.20;47.20
37786;DHT22;23625;48.784;9.336;2023-06-10T12:16:31;30.50;47.10
37786;DHT22;23625;48.784;9.336;2023-06-10T12:19:02;29.90;47.60
37786;DHT22;23625;48.784;9.336;2023-06-10T12:21:28;29.70;48.40
37786;DHT22;23625;48.784;9.336;2023-06-10T12:24:20;29.40;48.80
37786;DHT22;23625;48.784;9.336;2023-06-10T12:26:46;29.20;49.10
37786;DHT22;23625;48.784;9.336;2023-06-10T12:29:21;29.50;49.00
37786;DHT22;23625;48.784;9.336;2023-06-10T12:32:04;29.70;48.80
37786;DHT22;23625;48.784;9.336;2023-06-10T12:34:38;29.90;48.00
37786;DHT22;23625;48.784;9.336;2023-06-10T12:37:06;29.70;47.70
37786;DHT22;23625;48.784;9.336;2023-06-10T12:39:33;29.30;48.70
37786;DHT22;23625;48.784;9.336;2023-06-10T12:42:00;29.50;48.70
37786;DHT22;23625;48.784;9.336;2023-06-10T12:44:30;29.90;48.70
37786;DHT22;23625;48.784;9.336;2023-06-10T12:46:56;30.20;48.00
37786;DHT22;23625;48.784;9.336;2023-06-10T12:49:21;30.00;47.40
37786;DHT22;23625;48.784;9.336;2023-06-10T12:51:47;29.80;47.90
37786;DHT22;23625;48.784;9.336;2023-06-10T12:54:13;29.60;47.60
37786;DHT22;23625;48.784;9.336;2023-06-10T12:56:39;29.40;47.20
37786;DHT22;23625;48.784;9.336;2023-06-10T12:59:04;29.20;47.60
37786;DHT22;23625;48.784;9.336;2023-06-10T13:01:31;29.10;48.00
37786;DHT22;23625;48.784;9.336;2023-06-10T13:03:57;29.20;48.50
37786;DHT22;23625;48.784;9.336;2023-06-10T13:06:22;29.40;48.10
37786;DHT22;23625;48.784;9.336;2023-06-10T13:08:48;29.90;47.70
37786;DHT22;23625;48.784;9.336;2023-06-10T13:11:14;30.40;47.30
37786;DHT22;23625;48.784;9.336;2023-06-10T13:13:39;30.60;46.50
37786;DHT22;23625;48.784;9.336;2023-06-10T13:16:05;30.80;46.60
37786;DHT22;23625;48.784;9.336;2023-06-10T13:18:32;30.90;46.50
37786;DHT22;23625;48.784;9.336;2023-06-10T13:21:06;30.90;45.40
37786;DHT22;23625;48.784;9.336;2023-06-10T13:23:32;31.10;45.10
37786;DHT22;23625;48.784;9.336;2023-06-10T13:25:58;31.20;44.90
37786;DHT22;23625;48.784;9.336;2023-06-10T13:28:24;31.40;44.80
37786;DHT22;23625;48.784;9.336;2023-06-10T13:30:50;31.40;45.00
37786;DHT22;23625;48.784;9.336;2023-06-10T13:33:15;31.60;44.70
37786;DHT22;23625;48.784;9.336;2023-06-10T13:35:41;31.70;44.50
37786;DHT22;23625;48.784;9.336;2023-06-10T13:38:07;31.90;44.70
37786;DHT22;23625;48.784;9.336;2023-06-10T13:40:33;31.90;44.20
37786;DHT22;23625;48.784;9.336;2023-06-10T13:42:58;31.90;44.10
37786;DHT22;23625;48.784;9.336;2023-06-10T13:45:24;31.80;44.20
37786;DHT22;23625;48.784;9.336;2023-06-10T13:47:50;31.70;44.00
37786;DHT22;23625;48.784;9.336;2023-06-10T13:50:16;31.30;44.40
37786;DHT22;23625;48.784;9.336;2023-06-10T13:52:41;30.80;44.70
37786;DHT22;23625;48.784;9.336;2023-06-10T13:55:07;30.60;44.50
37786;DHT22;23625;48.784;9.336;2023-06-10T13:57:33;30.70;45.00
37786;DHT22;23625;48.784;9.336;2023-06-10T13:59:59;31.10;45.50
37786;DHT22;23625;48.784;9.336;2023-06-10T14:02:25;31.30;45.20
37786;DHT22;23625;48.784;9.336;2023-06-10T14:04:50;31.60;45.10
37786;DHT22;23625;48.784;9.336;2023-06-10T14:07:16;31.40;44.20
37786;DHT22;23625;48.784;9.336;2023-06-10T14:09:42;30.90;44.80
37786;DHT22;23625;48.784;9.336;2023-06-10T14:12:07;30.30;45.20
37786;DHT22;23625;48.784;9.336;2023-06-10T14:14:34;30.10;46.10
37786;DHT22;23625;48.784;9.336;2023-06-10T14:17:00;30.00;46.90
37786;DHT22;23625;48.784;9.336;2023-06-10T14:19:25;30.40;47.10
37786;DHT22;23625;48.784;9.336;2023-06-10T14:21:51;30.80;46.70
37786;DHT22;23625;48.784;9.336;2023-06-10T14:24:18;30.60;46.20
37786;DHT22;23625;48.784;9.336;2023-06-10T14:26:44;30.20;46.40
37786;DHT22;23625;48.784;9.336;2023-06-10T14:29:09;30.20;46.70
37786;DHT22;23625;48.784;9.336;2023-06-10T14:31:35;30.30;46.90
37786;DHT22;23625;48.784;9.336;2023-06-10T14:34:01;30.40;46.80
37786;DHT22;23625;48.784;9.336;2023-06-10T14:36:26;30.50;46.80
37786;DHT22;23625;48.784;9.336;2023-06-10T14:38:52;30.50;46.90
37786;DHT22;23625;48.784;9.336;2023-06-10T14:41:18;30.20;47.10
37786;DHT22;23625;48.784;9.336;2023-06-10T14:43:44;29.90;47.50
37786;DHT22;23625;48.784;9.336;2023-06-10T14:46:10;29.90;47.80
37786;DHT22;23625;48.784;9.336;2023-06-10T14:48:35;30.10;47.90
37786;DHT22;23625;48.784;9.336;2023-06-10T14:51:01;30.20;47.20
37786;DHT22;23625;48.784;9.336;2023-06-10T14:53:27;30.30;47.10
37786;DHT22;23625;48.784;9.336;2023-06-10T14:55:53;30.40;46.80
37786;DHT22;23625;48.784;9.336;2023-06-10T14:58:18;30.50;46.50
37786;DHT22;23625;48.784;9.336;2023-06-10T15:00:44;30.60;46.10
37786;DHT22;23625;48.784;9.336;2023-06-10T15:03:09;30.90;46.20
37786;DHT22;23625;48.784;9.336;2023-06-10T15:05:35;31.00;46.40
37786;DHT22;23625;48.784;9.336;2023-06-10T15:08:03;30.80;45.90
37786;DHT22;23625;48.784;9.336;2023-06-10T15:10:28;30.50;46.00
37786;DHT22;23625;48.784;9.336;2023-06-10T15:12:54;30.10;46.70
37786;DHT22;23625;48.784;9.336;2023-06-10T15:15:24;30.00;47.30
37786;DHT22;23625;48.784;9.336;2023-06-10T15:17:51;30.00;47.30
37786;DHT22;23625;48.784;9.336;2023-06-10T15:20:16;29.80;47.30
37786;DHT22;23625;48.784;9.336;2023-06-10T15:22:42;29.80;46.40
37786;DHT22;23625;48.784;9.336;2023-06-10T15:25:08;29.90;46.20
37786;DHT22;23625;48.784;9.336;2023-06-10T15:27:34;29.80;45.60
37786;DHT22;23625;48.784;9.336;2023-06-10T15:29:59;29.50;45.50
37786;DHT22;23625;48.784;9.336;2023-06-10T15:32:25;29.30;45.50
37786;DHT22;23625;48.784;9.336;2023-06-10T15:34:50;29.10;45.90
37786;DHT22;23625;48.784;9.336;2023-06-10T15:37:18;28.80;46.60